createdAt,value
2023-06-04T00:00:58.898Z,18.20
2023-06-04T00:02:01.046Z,18.21
2023-06-04T00:03:03.209Z,18.19
2023-06-04T00:04:05.374Z,18.18
2023-06-04T00:05:07.774Z,18.18
2023-06-04T00:06:09.813Z,18.16
2023-06-04T00:07:11.801Z,18.16
2023-06-04T00:08:13.715Z,18.15
2023-06-04T00:09:16.076Z,18.13
2023-06-04T00:10:17.958Z,18.11
2023-06-04T00:11:21.145Z,18.09
2023-06-04T00:12:23.241Z,18.11
2023-06-04T00:13:25.206Z,18.11
2023-06-04T00:14:27.259Z,18.14
2023-06-04T00:15:29.240Z,18.14
2023-06-04T00:16:31.216Z,18.14
2023-06-04T00:17:34.076Z,18.13
2023-06-04T00:18:36.046Z,18.13
2023-06-04T00:19:41.608Z,18.12
2023-06-04T00:20:43.796Z,18.08
2023-06-04T00:21:46.658Z,18.08
2023-06-04T00:22:48.757Z,18.03
2023-06-04T00:23:50.785Z,18.01
2023-06-04T00:24:52.743Z,17.97
2023-06-04T00:25:54.812Z,17.95
2023-06-04T00:26:56.713Z,17.93
2023-06-04T00:27:58.833Z,17.92
2023-06-04T00:29:02.260Z,17.94
2023-06-04T00:30:05.587Z,17.93
2023-06-04T00:31:08.210Z,17.96
2023-06-04T00:32:10.850Z,17.95
2023-06-04T00:33:12.793Z,17.97
2023-06-04T00:34:14.824Z,17.96
2023-06-04T00:35:16.860Z,17.96
2023-06-04T00:36:19.045Z,18.00
2023-06-04T00:37:21.575Z,17.98
2023-06-04T00:38:23.715Z,17.96
2023-06-04T00:39:25.737Z,17.96
2023-06-04T00:41:52.208Z,17.98
2023-06-04T00:42:54.270Z,18.00
2023-06-04T00:43:59.271Z,18.04
2023-06-04T00:45:01.472Z,18.05
2023-06-04T00:46:06.975Z,18.06
2023-06-04T00:47:09.244Z,18.09
2023-06-04T00:48:11.735Z,18.10
2023-06-04T00:49:14.162Z,18.12
2023-06-04T00:50:16.270Z,18.15
2023-06-04T00:51:18.582Z,18.17
2023-06-04T00:52:20.803Z,18.16
2023-06-04T00:53:25.009Z,18.15
2023-06-04T00:54:27.064Z,18.17
2023-06-04T00:55:29.582Z,18.16
2023-06-04T00:56:31.557Z,18.15
2023-06-04T00:57:33.759Z,18.16
2023-06-04T00:58:44.348Z,18.18
2023-06-04T00:59:46.558Z,18.19
2023-06-04T01:00:49.250Z,18.19
2023-06-04T01:01:58.486Z,18.21
2023-06-04T01:03:07.402Z,18.22
2023-06-04T01:04:37.592Z,18.27
2023-06-04T01:05:47.142Z,18.25
2023-06-04T01:06:55.059Z,18.24
2023-06-04T01:07:59.148Z,18.24
2023-06-04T01:09:02.318Z,18.26
2023-06-04T01:10:05.007Z,18.31
2023-06-04T01:11:07.298Z,18.30
2023-06-04T01:12:10.042Z,18.29
2023-06-04T01:13:12.252Z,18.28
2023-06-04T01:14:14.361Z,18.27
2023-06-04T01:15:16.518Z,18.26
2023-06-04T01:16:18.637Z,18.25
2023-06-04T01:17:38.373Z,18.25
2023-06-04T01:18:41.476Z,18.27
2023-06-04T01:20:15.303Z,18.31
2023-06-04T01:21:19.758Z,18.30
2023-06-04T01:22:33.832Z,18.33
2023-06-04T01:23:59.837Z,18.34
2023-06-04T01:25:10.933Z,18.34
2023-06-04T01:26:13.438Z,18.32
2023-06-04T01:27:17.058Z,18.31
2023-06-04T01:28:22.491Z,18.30
2023-06-04T01:29:25.117Z,18.29
2023-06-04T01:30:31.513Z,18.33
2023-06-04T01:31:34.330Z,18.33
2023-06-04T01:32:37.431Z,18.32
2023-06-04T01:33:39.912Z,18.32
2023-06-04T01:34:46.561Z,18.35
2023-06-04T01:35:48.732Z,18.35
2023-06-04T01:36:50.798Z,18.36
2023-06-04T01:37:53.093Z,18.37
2023-06-04T01:38:55.130Z,18.40
2023-06-04T01:39:57.288Z,18.40
2023-06-04T01:41:02.878Z,18.42
2023-06-04T01:42:05.730Z,18.43
2023-06-04T01:43:08.261Z,18.43
2023-06-04T01:44:10.567Z,18.44
2023-06-04T01:45:12.600Z,18.47
2023-06-04T01:46:14.713Z,18.48
2023-06-04T01:47:16.892Z,18.45
2023-06-04T01:48:19.063Z,18.50
2023-06-04T01:49:21.215Z,18.52
2023-06-04T01:50:24.080Z,18.55
2023-06-04T01:51:26.225Z,18.57
2023-06-04T01:52:28.418Z,18.59
2023-06-04T01:53:31.483Z,18.60
2023-06-04T01:54:35.131Z,18.57
2023-06-04T01:55:39.143Z,18.58
2023-06-04T01:56:41.598Z,18.61
2023-06-04T01:57:45.414Z,18.61
2023-06-04T01:58:47.608Z,18.66
2023-06-04T01:59:50.320Z,18.68
2023-06-04T02:00:54.170Z,18.71
2023-06-04T02:01:56.148Z,18.82
2023-06-04T02:02:59.321Z,18.79
2023-06-04T02:04:01.765Z,18.77
2023-06-04T02:05:08.864Z,18.78
2023-06-04T02:06:11.790Z,18.80
2023-06-04T02:07:18.943Z,18.83
2023-06-04T02:08:21.466Z,18.88
2023-06-04T02:09:23.460Z,18.95
2023-06-04T02:10:25.968Z,19.01
2023-06-04T02:11:28.096Z,19.10
2023-06-04T02:12:30.269Z,19.28
2023-06-04T02:13:32.299Z,19.67
2023-06-04T02:14:34.520Z,20.10
2023-06-04T02:15:36.641Z,20.52
2023-06-04T02:16:39.267Z,20.90
2023-06-04T02:17:44.060Z,21.23
2023-06-04T02:18:46.638Z,21.46
2023-06-04T02:19:51.252Z,21.68
2023-06-04T02:20:53.698Z,21.88
2023-06-04T02:21:55.876Z,22.13
2023-06-04T02:22:58.038Z,22.43
2023-06-04T02:24:00.171Z,22.67
2023-06-04T02:25:02.483Z,22.81
2023-06-04T02:26:04.637Z,22.96
2023-06-04T02:27:07.741Z,23.14
2023-06-04T02:28:09.752Z,23.28
2023-06-04T02:29:11.884Z,23.53
2023-06-04T02:30:13.970Z,23.72
2023-06-04T02:31:16.541Z,23.83
2023-06-04T02:32:19.104Z,23.84
2023-06-04T02:33:21.930Z,23.92
2023-06-04T02:34:24.646Z,23.85
2023-06-04T02:35:26.721Z,23.91
2023-06-04T02:36:30.177Z,23.99
2023-06-04T02:37:32.220Z,24.42
2023-06-04T02:38:34.706Z,24.16
2023-06-04T02:39:36.874Z,24.15
2023-06-04T02:40:39.816Z,24.14
2023-06-04T02:41:42.096Z,24.22
2023-06-04T02:42:44.095Z,24.36
2023-06-04T02:43:46.235Z,24.48
2023-06-04T02:44:48.177Z,24.57
2023-06-04T02:45:50.327Z,24.70
2023-06-04T02:46:52.454Z,24.83
2023-06-04T02:47:54.567Z,24.88
2023-06-04T02:48:56.573Z,24.94
2023-06-04T02:49:58.583Z,24.98
2023-06-04T02:51:01.242Z,25.08
2023-06-04T02:52:03.461Z,25.22
2023-06-04T02:53:05.957Z,25.20
2023-06-04T02:54:08.211Z,25.23
2023-06-04T02:55:10.579Z,25.21
2023-06-04T02:56:13.308Z,25.27
2023-06-04T02:57:15.267Z,25.30
2023-06-04T02:58:17.766Z,25.21
2023-06-04T02:59:20.275Z,25.23
2023-06-04T03:00:22.545Z,25.39
2023-06-04T03:01:25.842Z,25.46
2023-06-04T03:02:29.060Z,25.59
2023-06-04T03:03:32.814Z,25.71
2023-06-04T03:04:37.532Z,25.77
2023-06-04T03:05:40.875Z,25.89
2023-06-04T03:06:47.616Z,26.39
2023-06-04T03:07:49.772Z,26.25
2023-06-04T03:08:52.720Z,26.29
2023-06-04T03:09:54.714Z,26.26
2023-06-04T03:10:56.772Z,26.26
2023-06-04T03:12:02.793Z,26.26
2023-06-04T03:13:05.313Z,26.21
2023-06-04T03:14:07.257Z,26.31
2023-06-04T03:15:11.249Z,26.39
2023-06-04T03:16:13.523Z,26.58
2023-06-04T03:17:16.344Z,26.69
2023-06-04T03:18:18.372Z,26.82
2023-06-04T03:19:20.591Z,26.92
2023-06-04T03:20:25.434Z,27.03
2023-06-04T03:21:30.218Z,27.09
2023-06-04T03:22:32.547Z,27.13
2023-06-04T03:23:36.035Z,27.05
2023-06-04T03:24:40.569Z,26.99
2023-06-04T03:25:42.735Z,26.95
2023-06-04T03:26:44.725Z,26.98
2023-06-04T03:27:46.802Z,27.04
2023-06-04T03:28:48.878Z,27.05
2023-06-04T03:29:51.223Z,27.07
2023-06-04T03:30:53.318Z,27.02
2023-06-04T03:31:55.635Z,27.15
2023-06-04T03:32:57.717Z,27.14
2023-06-04T03:34:00.040Z,27.16
2023-06-04T03:35:02.752Z,27.24
2023-06-04T03:36:06.977Z,27.34
2023-06-04T03:37:08.948Z,27.36
2023-06-04T03:38:11.400Z,27.47
2023-06-04T03:39:13.349Z,27.62
2023-06-04T03:40:15.481Z,27.67
2023-06-04T03:41:17.602Z,27.77
2023-06-04T03:42:20.094Z,27.82
2023-06-04T03:43:22.953Z,27.86
2023-06-04T03:44:25.251Z,27.92
2023-06-04T03:45:27.956Z,27.94
2023-06-04T03:46:34.783Z,27.98
2023-06-04T03:47:37.144Z,28.02
2023-06-04T03:48:39.407Z,28.06
2023-06-04T03:49:42.031Z,28.00
2023-06-04T03:50:45.272Z,28.01
2023-06-04T03:51:47.304Z,28.02
2023-06-04T03:52:50.805Z,28.07
2023-06-04T03:53:52.884Z,28.09
2023-06-04T03:54:55.154Z,27.98
2023-06-04T03:55:57.254Z,28.03
2023-06-04T03:56:59.297Z,27.91
2023-06-04T03:58:01.429Z,27.91
2023-06-04T03:59:03.945Z,27.86
2023-06-04T04:00:14.420Z,27.89
2023-06-04T04:01:16.802Z,27.76
2023-06-04T04:02:19.505Z,27.70
2023-06-04T04:03:23.160Z,27.74
2023-06-04T04:04:25.236Z,28.28
2023-06-04T04:05:27.334Z,28.09
2023-06-04T04:06:29.431Z,28.16
2023-06-04T04:07:31.400Z,28.09
2023-06-04T04:08:33.508Z,28.01
2023-06-04T04:09:36.006Z,28.03
2023-06-04T04:10:38.199Z,28.14
2023-06-04T04:11:40.192Z,28.14
2023-06-04T04:12:42.386Z,28.11
2023-06-04T04:13:47.198Z,28.04
2023-06-04T04:14:49.378Z,27.99
2023-06-04T04:15:53.694Z,28.05
2023-06-04T04:16:56.093Z,28.19
2023-06-04T04:17:58.313Z,28.22
2023-06-04T04:19:00.492Z,28.34
2023-06-04T04:20:05.171Z,28.33
2023-06-04T04:21:07.783Z,28.46
2023-06-04T04:22:12.170Z,28.56
2023-06-04T04:23:14.876Z,28.51
2023-06-04T04:24:27.331Z,28.67
2023-06-04T04:25:29.525Z,28.39
2023-06-04T04:26:32.182Z,28.28
2023-06-04T04:27:36.272Z,28.38
2023-06-04T04:28:38.617Z,28.53
2023-06-04T04:29:43.955Z,28.66
2023-06-04T04:30:46.181Z,28.70
2023-06-04T04:31:49.388Z,28.79
2023-06-04T04:32:51.377Z,28.92
2023-06-04T04:33:53.714Z,28.98
2023-06-04T04:34:56.353Z,29.04
2023-06-04T04:36:00.468Z,29.02
2023-06-04T04:37:04.196Z,29.04
2023-06-04T04:38:06.374Z,28.93
2023-06-04T04:39:08.461Z,28.93
2023-06-04T04:40:11.225Z,28.93
2023-06-04T04:41:13.556Z,28.99
2023-06-04T04:42:15.871Z,29.02
2023-06-04T04:43:17.957Z,28.99
2023-06-04T04:44:20.078Z,28.62
2023-06-04T04:45:22.238Z,28.36
2023-06-04T04:46:24.373Z,28.24
2023-06-04T04:47:26.395Z,28.21
2023-06-04T04:48:28.596Z,28.35
2023-06-04T04:49:30.707Z,28.39
2023-06-04T04:50:32.816Z,28.25
2023-06-04T04:51:34.789Z,28.10
2023-06-04T04:52:36.922Z,28.06
2023-06-04T04:53:38.930Z,28.17
2023-06-04T04:54:41.103Z,28.31
2023-06-04T04:55:43.155Z,28.04
2023-06-04T04:56:45.194Z,27.84
2023-06-04T04:57:47.182Z,27.58
2023-06-04T04:58:50.154Z,27.32
2023-06-04T04:59:52.362Z,26.98
2023-06-04T05:00:54.403Z,26.57
2023-06-04T05:01:56.587Z,26.29
2023-06-04T05:02:58.779Z,26.03
2023-06-04T05:04:02.967Z,25.74
2023-06-04T05:05:06.108Z,25.57
2023-06-04T05:06:08.170Z,25.38
2023-06-04T05:07:10.232Z,25.26
2023-06-04T05:08:12.796Z,25.33
2023-06-04T05:09:14.935Z,25.11
2023-06-04T05:10:17.063Z,24.85
2023-06-04T05:11:19.312Z,24.60
2023-06-04T05:12:21.586Z,24.44
2023-06-04T05:13:24.661Z,24.19
2023-06-04T05:14:26.646Z,24.06
2023-06-04T05:15:29.218Z,24.11
2023-06-04T05:16:31.254Z,24.19
2023-06-04T05:17:33.439Z,24.34
2023-06-04T05:18:35.988Z,24.16
2023-06-04T05:19:39.886Z,24.24
2023-06-04T05:20:42.023Z,23.99
2023-06-04T05:21:44.884Z,23.79
2023-06-04T05:22:46.936Z,23.50
2023-06-04T05:23:49.770Z,23.33
2023-06-04T05:24:52.845Z,23.13
2023-06-04T05:25:55.784Z,23.01
2023-06-04T05:26:58.548Z,23.08
2023-06-04T05:28:00.663Z,23.08
2023-06-04T05:29:02.849Z,23.30
2023-06-04T05:30:05.812Z,23.57
2023-06-04T05:31:10.157Z,23.67
2023-06-04T05:32:13.002Z,23.63
2023-06-04T05:33:21.775Z,23.58
2023-06-04T05:34:23.881Z,23.30
2023-06-04T05:35:26.090Z,23.11
2023-06-04T05:36:29.046Z,22.81
2023-06-04T05:37:31.331Z,22.61
2023-06-04T05:38:33.808Z,22.68
2023-06-04T05:39:37.053Z,22.82
2023-06-04T05:40:39.324Z,22.84
2023-06-04T05:42:00.290Z,23.18
2023-06-04T05:43:02.520Z,23.34
2023-06-04T05:44:05.528Z,23.52
2023-06-04T05:45:09.840Z,23.69
2023-06-04T05:46:12.404Z,23.91
2023-06-04T05:47:14.713Z,24.12
2023-06-04T05:48:17.106Z,24.36
2023-06-04T05:49:19.160Z,24.56
2023-06-04T05:50:21.186Z,24.72
2023-06-04T05:51:23.233Z,24.82
2023-06-04T05:52:25.485Z,24.78
2023-06-04T05:53:27.708Z,24.97
2023-06-04T05:54:31.294Z,24.84
2023-06-04T05:55:33.282Z,25.32
2023-06-04T05:56:35.255Z,25.10
2023-06-04T05:57:37.706Z,25.03
2023-06-04T05:58:39.882Z,25.06
2023-06-04T05:59:41.984Z,24.95
2023-06-04T06:00:44.134Z,24.98
2023-06-04T06:01:46.250Z,24.97
2023-06-04T06:02:50.395Z,25.05
2023-06-04T06:03:52.918Z,25.09
2023-06-04T06:04:55.046Z,25.04
2023-06-04T06:05:58.392Z,24.99
2023-06-04T06:07:00.307Z,25.00
2023-06-04T06:08:03.175Z,25.02
2023-06-04T06:09:06.037Z,25.22
2023-06-04T06:10:08.557Z,25.46
2023-06-04T06:11:11.384Z,25.46
2023-06-04T06:12:14.133Z,25.26
2023-06-04T06:13:16.638Z,25.15
2023-06-04T06:14:18.995Z,25.15
2023-06-04T06:15:20.997Z,25.03
2023-06-04T06:16:23.380Z,24.99
2023-06-04T06:17:27.340Z,25.02
2023-06-04T06:18:29.580Z,24.87
2023-06-04T06:19:31.522Z,24.81
2023-06-04T06:20:33.646Z,24.55
2023-06-04T06:21:35.620Z,24.58
2023-06-04T06:22:37.788Z,24.63
2023-06-04T06:23:39.875Z,24.56
2023-06-04T06:24:41.999Z,24.66
2023-06-04T06:25:46.865Z,24.79
2023-06-04T06:26:49.044Z,24.79
2023-06-04T06:27:51.248Z,24.81
2023-06-04T06:28:53.426Z,24.68
2023-06-04T06:29:55.434Z,24.62
2023-06-04T06:30:57.538Z,24.50
2023-06-04T06:32:00.758Z,24.33
2023-06-04T06:33:02.918Z,24.09
2023-06-04T06:34:04.957Z,23.97
2023-06-04T06:35:08.969Z,23.92
2023-06-04T06:36:14.617Z,24.07
2023-06-04T06:37:16.757Z,24.18
2023-06-04T06:38:19.166Z,24.34
2023-06-04T06:39:21.635Z,24.29
2023-06-04T06:40:23.601Z,24.29
2023-06-04T06:41:27.148Z,24.23
2023-06-04T06:42:34.010Z,24.01
2023-06-04T06:43:36.192Z,23.82
2023-06-04T06:44:38.288Z,23.75
2023-06-04T06:45:40.389Z,23.62
2023-06-04T06:46:42.921Z,23.44
2023-06-04T06:47:45.141Z,23.35
2023-06-04T06:48:48.207Z,23.06
2023-06-04T06:49:50.216Z,22.91
2023-06-04T06:50:52.144Z,22.85
2023-06-04T06:51:54.443Z,22.72
2023-06-04T06:52:56.753Z,22.69
2023-06-04T06:53:58.870Z,22.59
2023-06-04T06:55:01.066Z,22.53
2023-06-04T06:56:04.243Z,22.53
2023-06-04T06:57:10.135Z,22.52
2023-06-04T06:58:12.797Z,22.53
2023-06-04T06:59:14.812Z,22.53
2023-06-04T07:00:17.975Z,22.52
2023-06-04T07:01:19.977Z,22.58
2023-06-04T07:02:22.394Z,22.48
2023-06-04T07:03:24.703Z,22.37
2023-06-04T07:04:27.294Z,22.23
2023-06-04T07:05:29.307Z,22.16
2023-06-04T07:06:31.467Z,22.12
2023-06-04T07:07:33.568Z,22.07
2023-06-04T07:08:36.535Z,22.07
2023-06-04T07:09:38.496Z,22.18
2023-06-04T07:10:40.818Z,22.28
2023-06-04T07:11:42.888Z,22.41
2023-06-04T07:12:45.023Z,22.41
2023-06-04T07:13:47.304Z,22.36
2023-06-04T07:14:49.512Z,22.37
2023-06-04T07:15:51.566Z,22.34
2023-06-04T07:16:53.877Z,22.38
2023-06-04T07:17:55.966Z,22.32
2023-06-04T07:18:58.262Z,22.33
2023-06-04T07:20:01.589Z,22.33
2023-06-04T07:21:05.182Z,22.30
2023-06-04T07:22:07.418Z,22.31
2023-06-04T07:23:09.546Z,22.26
2023-06-04T07:24:11.683Z,22.20
2023-06-04T07:25:13.996Z,22.21
2023-06-04T07:26:17.409Z,22.26
2023-06-04T07:27:21.074Z,22.32
2023-06-04T07:28:23.160Z,22.20
2023-06-04T07:29:25.238Z,22.04
2023-06-04T07:30:27.540Z,21.90
2023-06-04T07:31:29.679Z,21.73
2023-06-04T07:32:31.926Z,21.63
2023-06-04T07:33:34.128Z,21.49
2023-06-04T07:34:38.467Z,21.41
2023-06-04T07:35:40.883Z,21.36
2023-06-04T07:36:42.900Z,21.32
2023-06-04T07:37:50.222Z,21.22
2023-06-04T07:38:52.359Z,21.16
2023-06-04T07:39:54.422Z,21.02
2023-06-04T07:40:56.548Z,20.88
2023-06-04T07:41:58.726Z,20.80
2023-06-04T07:43:00.906Z,20.69
2023-06-04T07:44:02.979Z,20.64
2023-06-04T07:45:05.721Z,20.57
2023-06-04T07:46:08.589Z,20.52
2023-06-04T07:47:10.665Z,20.49
2023-06-04T07:48:13.008Z,20.46
2023-06-04T07:49:15.196Z,20.28
2023-06-04T07:50:17.454Z,20.21
2023-06-04T07:51:20.946Z,20.03
2023-06-04T07:52:23.023Z,19.93
2023-06-04T07:53:25.139Z,19.72
2023-06-04T07:54:27.633Z,19.56
2023-06-04T07:55:29.632Z,19.40
2023-06-04T07:56:31.874Z,19.21
2023-06-04T07:57:33.831Z,19.10
2023-06-04T07:58:36.204Z,19.05
2023-06-04T07:59:38.237Z,18.99
2023-06-04T08:00:40.425Z,18.82
2023-06-04T08:01:42.564Z,18.75
2023-06-04T08:02:44.890Z,18.70
2023-06-04T08:03:47.317Z,18.63
2023-06-04T08:04:49.623Z,18.60
2023-06-04T08:05:51.982Z,18.57
2023-06-04T08:06:54.293Z,18.55
2023-06-04T08:07:56.344Z,18.65
2023-06-04T08:08:58.510Z,18.65
2023-06-04T08:10:00.704Z,18.56
2023-06-04T08:11:03.869Z,18.47
2023-06-04T08:12:07.514Z,18.33
2023-06-04T08:13:11.176Z,18.32
2023-06-04T08:14:14.344Z,18.23
2023-06-04T08:15:16.986Z,18.08
2023-06-04T08:16:29.906Z,17.95
2023-06-04T08:17:44.151Z,17.85
2023-06-04T08:19:07.857Z,17.67
2023-06-04T08:20:18.992Z,17.60
2023-06-04T08:21:34.894Z,17.56
2023-06-04T08:22:43.217Z,17.47
2023-06-04T08:23:49.640Z,17.42
2023-06-04T08:25:11.692Z,17.39
2023-06-04T08:26:35.146Z,17.38
2023-06-04T08:27:57.495Z,17.37
2023-06-04T08:29:19.842Z,17.31
2023-06-04T08:30:22.493Z,17.22
2023-06-04T08:31:43.603Z,17.13
2023-06-04T08:32:56.845Z,17.07
2023-06-04T08:34:06.641Z,17.05
2023-06-04T08:35:23.701Z,17.07
2023-06-04T08:36:26.059Z,17.08
2023-06-04T08:37:28.128Z,17.09
2023-06-04T08:38:30.218Z,17.04
2023-06-04T08:39:32.646Z,16.95
2023-06-04T08:40:36.112Z,16.93
2023-06-04T08:41:46.245Z,16.96
2023-06-04T08:42:49.806Z,16.90
2023-06-04T08:43:52.497Z,16.87
2023-06-04T08:44:54.653Z,16.83
2023-06-04T08:46:03.119Z,16.82
2023-06-04T08:47:09.969Z,16.83
2023-06-04T08:48:14.686Z,16.81
2023-06-04T08:49:18.090Z,16.71
2023-06-04T08:50:23.833Z,16.69
2023-06-04T08:51:26.200Z,16.60
2023-06-04T08:52:28.916Z,16.57
2023-06-04T08:53:31.868Z,16.55
2023-06-04T08:54:34.905Z,16.46
2023-06-04T08:55:37.019Z,16.47
2023-06-04T08:56:39.261Z,16.39
2023-06-04T08:57:42.146Z,16.34
2023-06-04T08:58:45.761Z,16.30
2023-06-04T08:59:48.815Z,16.30
2023-06-04T09:00:51.805Z,16.31
2023-06-04T09:01:56.199Z,16.35
2023-06-04T09:02:59.409Z,16.36
2023-06-04T09:04:05.359Z,16.33
2023-06-04T09:05:10.511Z,16.28
2023-06-04T09:06:13.207Z,16.34
2023-06-04T09:07:16.105Z,16.27
2023-06-04T09:08:20.004Z,16.20
2023-06-04T09:09:24.960Z,16.16
2023-06-04T09:10:27.981Z,16.19
2023-06-04T09:11:40.700Z,16.20
2023-06-04T09:12:45.727Z,16.22
2023-06-04T09:13:49.169Z,16.27
2023-06-04T09:14:53.940Z,16.30
2023-06-04T09:16:04.078Z,16.34
2023-06-04T09:17:06.631Z,16.39
2023-06-04T09:18:08.782Z,16.36
2023-06-04T09:19:10.933Z,16.32
2023-06-04T09:20:23.369Z,16.35
2023-06-04T09:21:25.878Z,16.33
2023-06-04T09:22:35.502Z,16.35
2023-06-04T09:23:49.946Z,16.37
2023-06-04T09:24:54.113Z,16.35
2023-06-04T09:25:56.128Z,16.32
2023-06-04T09:26:58.272Z,16.30
2023-06-04T09:28:08.225Z,16.38
2023-06-04T09:29:10.589Z,16.41
2023-06-04T09:30:12.671Z,16.38
2023-06-04T09:31:18.114Z,16.43
2023-06-04T09:32:31.904Z,16.47
2023-06-04T09:34:20.602Z,16.36
2023-06-04T09:35:22.611Z,16.25
2023-06-04T09:36:31.583Z,16.31
2023-06-04T09:37:33.664Z,16.30
2023-06-04T09:38:36.792Z,16.18
2023-06-04T09:39:38.851Z,16.13
2023-06-04T09:40:41.155Z,16.11
2023-06-04T09:41:43.484Z,16.20
2023-06-04T09:42:47.045Z,16.38
2023-06-04T09:43:49.459Z,16.59
2023-06-04T09:44:51.930Z,16.71
2023-06-04T09:45:54.281Z,16.87
2023-06-04T09:46:58.031Z,16.84
2023-06-04T09:48:00.780Z,17.08
2023-06-04T09:49:06.901Z,17.03
2023-06-04T09:50:09.977Z,16.77
2023-06-04T09:51:16.918Z,16.50
2023-06-04T09:52:38.939Z,16.35
2023-06-04T09:53:41.044Z,16.16
2023-06-04T09:54:43.679Z,16.14
2023-06-04T09:55:45.781Z,15.99
2023-06-04T09:56:48.164Z,15.89
2023-06-04T09:57:51.564Z,15.86
2023-06-04T09:59:04.213Z,15.92
2023-06-04T10:00:10.677Z,15.93
2023-06-04T10:01:13.050Z,16.08
2023-06-04T10:02:19.916Z,16.07
2023-06-04T10:04:01.737Z,16.16
2023-06-04T10:05:04.911Z,16.18
2023-06-04T10:06:26.485Z,16.25
2023-06-04T10:07:47.119Z,16.27
2023-06-04T10:08:53.936Z,16.16
2023-06-04T10:09:57.285Z,16.20
2023-06-04T10:11:04.282Z,16.19
2023-06-04T10:12:06.737Z,16.20
2023-06-04T10:13:24.593Z,16.29
2023-06-04T10:14:40.273Z,16.12
2023-06-04T10:16:01.367Z,15.95
2023-06-04T10:17:40.934Z,16.20
2023-06-04T10:18:44.921Z,15.99
2023-06-04T10:20:07.011Z,16.01
2023-06-04T10:21:10.473Z,16.04
2023-06-04T10:22:31.144Z,15.99
2023-06-04T10:23:33.609Z,15.84
2023-06-04T10:24:35.817Z,15.69
2023-06-04T10:25:38.360Z,15.71
2023-06-04T10:26:45.054Z,15.79
2023-06-04T10:27:48.026Z,15.90
2023-06-04T10:28:50.820Z,15.85
2023-06-04T10:29:54.251Z,15.96
2023-06-04T10:30:56.334Z,16.06
2023-06-04T10:31:58.596Z,16.29
2023-06-04T10:33:01.355Z,16.36
2023-06-04T10:34:04.429Z,16.38
2023-06-04T10:35:09.367Z,16.33
2023-06-04T10:36:20.064Z,16.27
2023-06-04T10:37:27.212Z,16.30
2023-06-04T10:38:47.732Z,16.14
2023-06-04T10:39:57.473Z,16.34
2023-06-04T10:41:00.015Z,16.50
2023-06-04T10:42:06.876Z,16.51
2023-06-04T10:43:13.602Z,16.42
2023-06-04T10:44:15.701Z,16.32
2023-06-04T10:45:17.939Z,16.29
2023-06-04T10:46:21.385Z,16.18
2023-06-04T10:47:24.981Z,16.15
2023-06-04T10:48:27.138Z,16.07
2023-06-04T10:49:48.709Z,15.92
2023-06-04T10:50:54.586Z,15.94
2023-06-04T10:52:04.553Z,16.04
2023-06-04T10:53:06.845Z,16.07
2023-06-04T10:54:09.092Z,16.11
2023-06-04T10:55:30.346Z,16.09
2023-06-04T10:56:35.146Z,16.26
2023-06-04T10:57:37.899Z,16.35
2023-06-04T10:58:40.188Z,16.38
2023-06-04T10:59:42.876Z,16.23
2023-06-04T11:00:51.140Z,16.17
2023-06-04T11:01:53.468Z,16.01
2023-06-04T11:02:59.095Z,16.06
2023-06-04T11:04:01.929Z,15.95
2023-06-04T11:05:23.712Z,15.98
2023-06-04T11:06:29.216Z,16.04
2023-06-04T11:07:46.363Z,16.22
2023-06-04T11:08:48.729Z,16.23
2023-06-04T11:10:10.943Z,16.29
2023-06-04T11:11:14.895Z,16.36
2023-06-04T11:12:17.296Z,16.22
2023-06-04T11:13:26.033Z,16.18
2023-06-04T11:14:28.384Z,16.17
2023-06-04T11:15:45.807Z,16.23
2023-06-04T11:17:06.678Z,16.32
2023-06-04T11:18:08.830Z,16.13
2023-06-04T11:19:11.000Z,16.03
2023-06-04T11:20:20.884Z,16.00
2023-06-04T11:21:24.525Z,15.89
2023-06-04T11:22:27.911Z,15.91
2023-06-04T11:23:30.191Z,15.97
2023-06-04T11:24:52.676Z,15.87
2023-06-04T11:25:56.014Z,15.88
2023-06-04T11:28:09.281Z,15.75
2023-06-04T11:29:13.204Z,15.64
2023-06-04T11:30:16.014Z,15.63
2023-06-04T11:31:18.167Z,15.54
2023-06-04T11:32:58.454Z,15.59
2023-06-04T11:34:00.427Z,15.54
2023-06-04T11:35:09.642Z,15.70
2023-06-04T11:36:23.245Z,15.62
2023-06-04T11:37:25.622Z,15.77
2023-06-04T11:38:27.694Z,15.77
2023-06-04T11:39:48.493Z,15.82
2023-06-04T11:41:06.413Z,15.86
2023-06-04T11:42:09.124Z,15.82
2023-06-04T11:43:30.744Z,15.66
2023-06-04T11:44:33.093Z,15.69
2023-06-04T11:45:35.243Z,15.78
2023-06-04T11:46:46.841Z,15.93
2023-06-04T11:47:50.885Z,15.99
2023-06-04T11:48:54.290Z,16.00
2023-06-04T11:50:00.712Z,16.06
2023-06-04T11:51:08.864Z,16.00
2023-06-04T11:52:29.232Z,16.00
2023-06-04T11:53:31.794Z,16.04
2023-06-04T11:54:38.213Z,16.01
2023-06-04T11:55:41.500Z,15.87
2023-06-04T11:56:47.343Z,15.81
2023-06-04T11:57:52.902Z,15.80
2023-06-04T11:58:58.913Z,15.81
2023-06-04T12:00:01.444Z,15.73
2023-06-04T12:01:04.816Z,15.52
2023-06-04T12:02:08.616Z,15.55
2023-06-04T12:03:10.822Z,15.52
2023-06-04T12:04:20.301Z,15.50
2023-06-04T12:05:24.668Z,15.59
2023-06-04T12:06:26.927Z,15.56
2023-06-04T12:07:28.906Z,15.54
2023-06-04T12:08:31.139Z,15.60
2023-06-04T12:09:39.512Z,15.51
2023-06-04T12:10:43.627Z,15.62
2023-06-04T12:11:46.245Z,15.83
2023-06-04T12:12:56.302Z,15.74
2023-06-04T12:13:59.437Z,15.88
2023-06-04T12:15:01.753Z,15.86
2023-06-04T12:16:08.193Z,15.80
2023-06-04T12:17:10.676Z,15.78
2023-06-04T12:18:12.819Z,15.82
2023-06-04T12:19:15.038Z,15.84
2023-06-04T12:20:17.237Z,15.74
2023-06-04T12:21:42.158Z,15.66
2023-06-04T12:22:48.678Z,15.77
2023-06-04T12:23:51.471Z,15.79
2023-06-04T12:24:58.814Z,15.78
2023-06-04T12:26:19.366Z,15.68
2023-06-04T12:27:24.257Z,15.78
2023-06-04T12:28:26.234Z,15.63
2023-06-04T12:29:28.356Z,15.53
2023-06-04T12:30:42.322Z,15.43
2023-06-04T12:31:46.943Z,15.47
2023-06-04T12:32:49.929Z,15.40
2023-06-04T12:34:10.935Z,15.45
2023-06-04T12:35:12.937Z,15.60
2023-06-04T12:36:14.988Z,15.70
2023-06-04T12:37:54.424Z,15.69
2023-06-04T12:39:34.298Z,15.95
2023-06-04T12:40:36.390Z,15.73
2023-06-04T12:41:39.084Z,15.68
2023-06-04T12:42:41.456Z,15.67
2023-06-04T12:43:45.707Z,15.66
2023-06-04T12:44:47.877Z,15.64
2023-06-04T12:45:50.017Z,15.72
2023-06-04T12:46:52.419Z,15.81
2023-06-04T12:47:54.660Z,15.97
2023-06-04T12:48:56.741Z,15.96
2023-06-04T12:49:59.644Z,15.96
2023-06-04T12:51:01.698Z,15.83
2023-06-04T12:52:04.454Z,15.71
2023-06-04T12:53:06.482Z,15.89
2023-06-04T12:54:08.664Z,15.86
2023-06-04T12:55:11.026Z,15.90
2023-06-04T12:56:13.174Z,16.02
2023-06-04T12:57:15.313Z,16.09
2023-06-04T12:58:18.460Z,16.16
2023-06-04T12:59:20.536Z,16.22
2023-06-04T13:00:22.564Z,15.88
2023-06-04T13:01:26.674Z,15.66
2023-06-04T13:02:30.448Z,15.60
2023-06-04T13:03:33.227Z,15.51
2023-06-04T13:04:35.629Z,15.47
2023-06-04T13:05:38.044Z,15.50
2023-06-04T13:06:40.212Z,15.45
2023-06-04T13:07:42.197Z,15.56
2023-06-04T13:08:44.696Z,15.67
2023-06-04T13:09:46.731Z,15.73
2023-06-04T13:10:49.318Z,15.82
2023-06-04T13:11:52.292Z,15.92
2023-06-04T13:12:54.452Z,15.98
2023-06-04T13:13:56.561Z,15.92
2023-06-04T13:14:58.652Z,15.95
2023-06-04T13:16:00.754Z,16.02
2023-06-04T13:17:14.032Z,16.18
2023-06-04T13:18:24.002Z,16.30
2023-06-04T13:19:27.815Z,16.33
2023-06-04T13:20:29.905Z,16.47
2023-06-04T13:21:31.890Z,16.45
2023-06-04T13:22:34.173Z,16.36
2023-06-04T13:23:49.679Z,16.37
2023-06-04T13:24:52.878Z,16.18
2023-06-04T13:25:54.928Z,16.16
2023-06-04T13:26:57.216Z,16.17
2023-06-04T13:27:59.749Z,15.97
2023-06-04T13:29:01.754Z,15.91
2023-06-04T13:30:04.190Z,15.90
2023-06-04T13:31:07.938Z,15.93
2023-06-04T13:32:12.024Z,15.97
2023-06-04T13:33:14.484Z,16.06
2023-06-04T13:35:25.446Z,16.06
2023-06-04T13:36:27.495Z,16.08
2023-06-04T13:37:30.053Z,16.10
2023-06-04T13:38:32.948Z,16.14
2023-06-04T13:39:35.250Z,16.27
2023-06-04T13:40:37.316Z,16.33
2023-06-04T13:41:39.975Z,16.35
2023-06-04T13:42:44.187Z,16.34
2023-06-04T13:43:46.401Z,16.36
2023-06-04T13:44:48.373Z,16.41
2023-06-04T13:45:50.527Z,16.40
2023-06-04T13:46:52.708Z,16.35
2023-06-04T13:47:55.458Z,16.39
2023-06-04T13:48:57.993Z,16.40
2023-06-04T13:50:00.333Z,16.47
2023-06-04T13:51:02.421Z,16.50
2023-06-04T13:52:04.637Z,16.46
2023-06-04T13:53:06.718Z,16.44
2023-06-04T13:54:10.717Z,16.32